Terminal Aerodrome Forecast
Issued by NWS

Home | Current Version | Previous Version | Text Only | Print | Product List | Glossary On
Versions: 1 2 3 4 5 6 7 8 9 10 11 12 13 14 15 16 17 18
000
FTUS43 KGRB 291353 AAA
TAFCWA
TAF AMD
KCWA 291353Z 2914/3012 17008KT P6SM BKN035 OVC060
     FM291600 23012G20KT P6SM VCSH BKN035 BKN050
      TEMPO 2916/2920 BKN025
     FM292100 26008KT P6SM -SHRA BKN035 OVC050
      TEMPO 2921/3001 3SM TSRA BKN020CB
     FM300100 35003KT 4SM RA BR BKN010 OVC025
     FM300300 36007KT 4SM RA BR OVC005
     FM301000 36009G15KT 6SM -SHRA SCT006 OVC014=

USA.gov is the U.S. government's official web portal to all federal, state and local government web resources and services.